Time;durP1;ratioP1;P1;durP2;ratioP2;P2;SDS_P1;SDS_P2;PMS_P1;PMS_P2;Temp;Humidity;BMP_temperature;BMP_pressure;BME280_temperature;BME280_humidity;BME280_pressure;Samples;Min_cycle;Max_cycle;Signal;HPM_P1;HPM_P2
2023/10/06 00:00:10;;;;;;;14.10;5.40;;;;;;;;;;5045990;28;20475;-66
2023/10/06 00:02:39;;;;;;;14.90;6.07;;;;;;;;;;5046068;28;20413;-66
2023/10/06 00:05:11;;;;;;;13.55;5.72;;;12.00;99.90;;;;;;5038451;28;20415;-66
2023/10/06 00:07:40;;;;;;;14.30;5.55;;;;;;;;;;5041575;28;20901;-66
2023/10/06 00:10:14;;;;;;;15.77;5.50;;;11.80;99.90;;;;;;5044828;28;20422;-66
2023/10/06 00:12:47;;;;;;;15.77;5.80;;;11.90;99.90;;;;;;5044344;28;20410;-67
2023/10/06 00:15:26;;;;;;;16.38;5.70;;;;;;;;;;5043268;28;20496;-67
2023/10/06 00:18:00;;;;;;;11.98;5.80;;;12.00;99.90;;;;;;5041791;28;20966;-66
2023/10/06 00:20:38;;;;;;;16.27;5.82;;;12.00;99.90;;;;;;5040512;28;20506;-66
2023/10/06 00:23:06;;;;;;;11.88;5.25;;;12.00;99.90;;;;;;5044790;28;20421;-66
2023/10/06 00:25:35;;;;;;;12.60;5.30;;;;;;;;;;5043290;28;20427;-66
2023/10/06 00:28:08;;;;;;;11.82;5.30;;;11.90;99.90;;;;;;5044729;28;20497;-67
2023/10/06 00:30:35;;;;;;;10.23;5.35;;;12.00;99.90;;;;;;5040874;28;20409;-66
2023/10/06 00:33:05;;;;;;;13.23;5.93;;;12.10;99.90;;;;;;5035982;28;20499;-66
2023/10/06 00:35:32;;;;;;;13.50;5.68;;;11.90;99.90;;;;;;5035938;28;20419;-66
2023/10/06 00:38:12;;;;;;;11.55;5.70;;;11.90;99.90;;;;;;5044177;28;20403;-66
2023/10/06 00:40:40;;;;;;;14.05;5.90;;;12.10;99.90;;;;;;5045017;28;20930;-67
2023/10/06 00:43:08;;;;;;;15.25;6.22;;;12.00;99.90;;;;;;5041845;28;20665;-66
2023/10/06 00:45:39;;;;;;;10.55;5.35;;;11.90;99.90;;;;;;5040900;28;20469;-66
2023/10/06 00:48:14;;;;;;;10.00;5.33;;;11.80;99.90;;;;;;5040694;28;20415;-67
2023/10/06 00:50:40;;;;;;;13.90;5.57;;;11.80;99.90;;;;;;5045195;28;20768;-66
2023/10/06 00:53:09;;;;;;;13.98;5.85;;;11.40;99.90;;;;;;5045681;28;20760;-66
2023/10/06 00:55:38;;;;;;;13.88;5.18;;;11.70;99.90;;;;;;5040444;28;20510;-66
2023/10/06 00:58:05;;;;;;;14.65;5.72;;;11.80;99.90;;;;;;5039993;28;20416;-66
2023/10/06 01:00:37;;;;;;;15.15;5.80;;;11.70;99.90;;;;;;5043629;28;20457;-66
2023/10/06 01:03:09;;;;;;;10.10;5.35;;;12.00;99.90;;;;;;5039636;28;20467;-66
2023/10/06 01:05:38;;;;;;;13.02;5.53;;;12.10;99.90;;;;;;5043285;28;20415;-66
2023/10/06 01:08:07;;;;;;;12.25;5.43;;;11.80;99.90;;;;;;5039528;28;20409;-67
2023/10/06 01:10:35;;;;;;;12.20;5.28;;;11.80;99.90;;;;;;5046778;28;20424;-66
2023/10/06 01:13:11;;;;;;;12.27;5.53;;;11.80;99.90;;;;;;5040584;28;20502;-66
2023/10/06 01:15:44;;;;;;;18.17;6.22;;;11.60;99.90;;;;;;5044671;28;20417;-66
2023/10/06 01:18:19;;;;;;;12.02;5.13;;;11.60;99.90;;;;;;5039922;28;20415;-67
2023/10/06 01:20:48;;;;;;;11.80;5.63;;;11.60;99.90;;;;;;5043176;28;20423;-66
2023/10/06 01:23:21;;;;;;;14.05;5.55;;;11.70;99.90;;;;;;5046199;28;20413;-67
2023/10/06 01:25:53;;;;;;;13.80;5.78;;;11.60;99.90;;;;;;5044602;28;20478;-67
2023/10/06 01:28:20;;;;;;;11.47;5.47;;;11.60;99.90;;;;;;5040746;28;20854;-67
2023/10/06 01:30:46;;;;;;;12.60;5.78;;;11.70;99.90;;;;;;5042861;28;20406;-66
2023/10/06 01:33:13;;;;;;;11.63;5.30;;;11.70;99.90;;;;;;5040803;28;20412;-67
2023/10/06 01:35:42;;;;;;;11.23;5.60;;;11.60;99.90;;;;;;5042717;28;20748;-66
2023/10/06 01:38:18;;;;;;;13.52;5.63;;;11.60;99.90;;;;;;5041092;28;20864;-66
2023/10/06 01:40:50;;;;;;;12.57;5.68;;;11.60;99.90;;;;;;5043528;28;20510;-66
2023/10/06 01:43:22;;;;;;;12.90;5.30;;;11.60;99.90;;;;;;5043396;28;20418;-66
2023/10/06 01:45:49;;;;;;;9.52;5.00;;;11.70;99.90;;;;;;5043727;28;20471;-66
2023/10/06 01:48:29;;;;;;;13.63;5.57;;;11.60;99.90;;;;;;5040003;28;20822;-66
2023/10/06 01:50:56;;;;;;;10.93;5.20;;;;;;;;;;5035355;28;20437;-67
2023/10/06 01:53:32;;;;;;;12.82;5.43;;;11.60;99.90;;;;;;5041192;28;20422;-67
2023/10/06 01:56:06;;;;;;;14.82;5.65;;;13.40;99.90;;;;;;5048270;28;20503;-66
2023/10/06 01:58:33;;;;;;;15.15;5.80;;;11.60;99.90;;;;;;5044247;28;20425;-66
2023/10/06 02:00:59;;;;;;;11.47;5.30;;;11.70;99.90;;;;;;5039576;28;20983;-66
2023/10/06 02:03:26;;;;;;;10.55;5.45;;;11.40;99.90;;;;;;5041689;28;20417;-66
2023/10/06 02:05:54;;;;;;;12.60;5.07;;;11.70;99.90;;;;;;5042233;28;20496;-66
2023/10/06 02:08:23;;;;;;;11.30;5.25;;;11.80;99.90;;;;;;5038938;28;20411;-66
2023/10/06 02:10:50;;;;;;;11.73;5.15;;;11.80;99.90;;;;;;5041282;28;20418;-66
2023/10/06 02:13:21;;;;;;;10.20;4.72;;;11.70;99.90;;;;;;5039767;28;20481;-66
2023/10/06 02:15:56;;;;;;;9.15;4.97;;;11.60;99.90;;;;;;5040344;28;20447;-66
2023/10/06 02:18:23;;;;;;;12.00;5.03;;;11.80;99.90;;;;;;5040039;28;20417;-66
2023/10/06 02:20:51;;;;;;;12.18;4.97;;;11.80;99.90;;;;;;5040640;28;20459;-66
2023/10/06 02:23:17;;;;;;;10.77;5.40;;;11.70;99.90;;;;;;5045675;28;20541;-66
2023/10/06 02:25:44;;;;;;;12.02;4.95;;;;;;;;;;5045977;28;20464;-67
2023/10/06 02:28:14;;;;;;;12.03;5.03;;;;;;;;;;5045625;28;20788;-66
2023/10/06 02:30:49;;;;;;;14.82;5.40;;;;;;;;;;5044427;28;20416;-66
2023/10/06 02:33:16;;;;;;;9.10;4.72;;;;;;;;;;5043366;28;20419;-66
2023/10/06 02:35:46;;;;;;;11.25;4.43;;;;;;;;;;5040849;28;20535;-67
2023/10/06 02:38:13;;;;;;;11.07;4.80;;;11.80;99.90;;;;;;5040539;28;20798;-66
2023/10/06 02:40:45;;;;;;;7.10;4.40;;;;;;;;;;5041799;28;20437;-66
2023/10/06 02:43:16;;;;;;;11.45;5.15;;;11.70;99.90;;;;;;5041905;28;20463;-66
2023/10/06 02:45:44;;;;;;;10.02;5.30;;;;;;;;;;5039773;28;20457;-66
2023/10/06 02:48:22;;;;;;;9.38;4.70;;;12.00;99.90;;;;;;5044442;28;20795;-67
2023/10/06 02:50:49;;;;;;;10.48;4.88;;;11.70;99.90;;;;;;5044656;28;20409;-66
2023/10/06 02:53:20;;;;;;;13.98;5.28;;;;;;;;;;5042723;28;20413;-66
2023/10/06 02:55:49;;;;;;;10.27;5.45;;;;;;;;;;5037756;28;20445;-66
2023/10/06 02:58:24;;;;;;;8.63;4.50;;;;;;;;;;5036113;28;20446;-66
2023/10/06 03:00:55;;;;;;;10.23;4.85;;;;;;;;;;5037553;28;20427;-66
2023/10/06 03:03:26;;;;;;;10.98;5.07;;;;;;;;;;5039878;28;20425;-66
2023/10/06 03:05:55;;;;;;;10.20;4.78;;;;;;;;;;5037433;28;20415;-66
2023/10/06 03:08:26;;;;;;;10.55;4.65;;;;;;;;;;5040013;28;20413;-66
2023/10/06 03:10:53;;;;;;;9.98;4.60;;;;;;;;;;5043069;28;20467;-66
2023/10/06 03:13:24;;;;;;;11.75;4.50;;;;;;;;;;5044912;28;20425;-66
2023/10/06 03:15:52;;;;;;;10.23;4.95;;;11.90;99.90;;;;;;5041720;28;20919;-66
2023/10/06 03:18:19;;;;;;;10.95;4.93;;;11.80;99.90;;;;;;5041262;28;20897;-66
2023/10/06 03:20:49;;;;;;;11.90;4.68;;;11.70;99.90;;;;;;5042667;28;20443;-66
2023/10/06 03:23:26;;;;;;;11.82;5.40;;;11.60;99.90;;;;;;5041550;28;20784;-67
2023/10/06 03:25:57;;;;;;;12.02;5.15;;;11.70;99.90;;;;;;5041979;28;20418;-66
2023/10/06 03:28:31;;;;;;;8.55;4.60;;;;;;;;;;5041191;28;20417;-66
2023/10/06 03:31:03;;;;;;;9.63;4.95;;;;;;;;;;5043866;28;20403;-66
2023/10/06 03:33:31;;;;;;;10.70;5.40;;;;;;;;;;5042995;28;20908;-66
2023/10/06 03:35:58;;;;;;;9.25;4.72;;;11.70;99.90;;;;;;5046335;28;20414;-66
2023/10/06 03:38:27;;;;;;;11.80;4.85;;;;;;;;;;5045597;28;20857;-66
2023/10/06 03:41:07;;;;;;;10.05;4.72;;;11.70;99.90;;;;;;5041379;28;20953;-66
2023/10/06 03:43:40;;;;;;;9.57;4.95;;;;;;;;;;5042307;28;20415;-66
2023/10/06 03:46:09;;;;;;;10.68;5.15;;;11.80;99.90;;;;;;5038620;28;20450;-67
2023/10/06 03:48:36;;;;;;;10.63;4.93;;;11.60;99.90;;;;;;5042057;28;20444;-66
2023/10/06 03:51:04;;;;;;;11.15;5.40;;;;;;;;;;5047541;28;20401;-67
2023/10/06 03:53:30;;;;;;;11.73;4.97;;;11.70;99.90;;;;;;5045000;28;20903;-66
2023/10/06 03:55:57;;;;;;;9.02;4.32;;;11.40;99.90;;;;;;5046049;28;20426;-66
2023/10/06 03:58:28;;;;;;;11.25;4.93;;;11.50;99.90;;;;;;5051720;28;20460;-66
2023/10/06 04:00:55;;;;;;;11.18;4.55;;;;;;;;;;5040125;28;20440;-66
2023/10/06 04:03:23;;;;;;;11.30;4.88;;;;;;;;;;5042801;28;20429;-66
2023/10/06 04:05:51;;;;;;;11.20;5.18;;;11.70;99.90;;;;;;5040536;28;20416;-66
2023/10/06 04:08:20;;;;;;;11.57;4.88;;;11.60;99.90;;;;;;5042153;28;20889;-66
2023/10/06 04:10:51;;;;;;;11.18;4.75;;;11.70;99.90;;;;;;5041417;28;20445;-66
2023/10/06 04:13:18;;;;;;;12.18;4.78;;;;;;;;;;5043823;28;20417;-66
2023/10/06 04:15:49;;;;;;;11.47;5.30;;;;;;;;;;5040490;28;20471;-66
2023/10/06 04:18:17;;;;;;;12.32;4.30;;;11.80;99.90;;;;;;5044429;28;20415;-66
2023/10/06 04:20:46;;;;;;;8.85;4.22;;;;;;;;;;5041962;28;20483;-66
2023/10/06 04:23:14;;;;;;;11.63;4.68;;;11.90;99.90;;;;;;5045728;28;20418;-66
2023/10/06 04:25:42;;;;;;;10.68;4.47;;;;;;;;;;5043973;28;20479;-66
2023/10/06 04:28:11;;;;;;;8.83;4.90;;;;;;;;;;5042007;28;20422;-66
2023/10/06 04:30:38;;;;;;;10.80;4.38;;;;;;;;;;5044049;28;20417;-66
2023/10/06 04:33:05;;;;;;;9.48;4.15;;;;;;;;;;5043269;28;20777;-66
2023/10/06 04:35:32;;;;;;;11.20;4.78;;;;;;;;;;5041465;28;20758;-66
2023/10/06 04:38:01;;;;;;;11.10;4.90;;;11.50;99.90;;;;;;5040739;28;20493;-67
2023/10/06 04:40:28;;;;;;;9.50;4.28;;;11.50;99.90;;;;;;5041850;28;20403;-67
2023/10/06 04:42:56;;;;;;;8.23;4.43;;;;;;;;;;5043530;28;20429;-67
2023/10/06 04:45:23;;;;;;;8.93;4.60;;;;;;;;;;5043547;28;20414;-67
2023/10/06 04:47:51;;;;;;;13.50;5.00;;;;;;;;;;5040092;28;20465;-66
2023/10/06 04:50:20;;;;;;;9.45;4.45;;;;;;;;;;5041714;28;20504;-66
2023/10/06 04:52:47;;;;;;;8.40;4.47;;;11.60;99.90;;;;;;5041429;28;20467;-66
2023/10/06 04:55:16;;;;;;;9.20;4.72;;;11.80;99.90;;;;;;5042578;28;20420;-66
2023/10/06 04:57:43;;;;;;;11.75;4.75;;;11.50;99.90;;;;;;5042803;28;20895;-66
2023/10/06 05:00:15;;;;;;;10.45;5.00;;;;;;;;;;5042916;28;20889;-66
2023/10/06 05:02:43;;;;;;;10.02;4.75;;;11.40;99.90;;;;;;5040307;28;20466;-66
2023/10/06 05:05:11;;;;;;;11.18;4.72;;;11.00;99.90;;;;;;5043966;28;20410;-66
2023/10/06 05:07:38;;;;;;;10.68;4.40;;;11.50;99.90;;;;;;5044212;28;20413;-66
2023/10/06 05:10:08;;;;;;;11.30;4.88;;;11.50;99.90;;;;;;5045436;28;20462;-66
2023/10/06 05:12:37;;;;;;;9.80;4.75;;;11.70;99.90;;;;;;5042990;28;20454;-67
2023/10/06 05:15:07;;;;;;;10.35;4.90;;;11.40;99.90;;;;;;5043930;28;20417;-66
2023/10/06 05:17:34;;;;;;;10.88;4.90;;;11.50;99.90;;;;;;5040209;28;20481;-67
2023/10/06 05:20:00;;;;;;;11.18;4.97;;;11.50;99.90;;;;;;5042609;28;20418;-66
2023/10/06 05:22:27;;;;;;;8.63;4.38;;;11.40;99.90;;;;;;5043198;28;20428;-66
2023/10/06 05:24:54;;;;;;;10.20;4.93;;;11.30;99.90;;;;;;5041762;28;20415;-67
2023/10/06 05:27:22;;;;;;;10.73;4.60;;;11.70;99.90;;;;;;5042132;28;20441;-66
2023/10/06 05:29:50;;;;;;;7.72;4.40;;;11.40;99.90;;;;;;5039520;28;20418;-66
2023/10/06 05:32:17;;;;;;;10.10;4.53;;;11.40;99.90;;;;;;5042968;28;20414;-67
2023/10/06 05:34:43;;;;;;;10.95;4.20;;;11.50;99.90;;;;;;5042896;28;20417;-67
2023/10/06 05:37:12;;;;;;;11.07;4.28;;;11.70;99.90;;;;;;5041034;28;20414;-67
2023/10/06 05:39:40;;;;;;;9.97;4.50;;;11.50;99.90;;;;;;5042038;28;20423;-67
2023/10/06 05:42:08;;;;;;;10.77;4.68;;;11.60;99.90;;;;;;5045500;28;20425;-67
2023/10/06 05:44:36;;;;;;;7.38;4.22;;;11.30;99.90;;;;;;5039984;28;20415;-67
2023/10/06 05:47:08;;;;;;;9.88;4.60;;;11.40;99.90;;;;;;5040221;28;20419;-67
2023/10/06 05:49:35;;;;;;;9.68;4.78;;;11.50;99.90;;;;;;5038091;28;20516;-67
2023/10/06 05:52:03;;;;;;;11.35;4.57;;;11.50;99.90;;;;;;5041709;28;20405;-67
2023/10/06 05:54:31;;;;;;;7.88;4.25;;;11.50;99.90;;;;;;5045010;28;20418;-67
2023/10/06 05:56:58;;;;;;;11.53;4.40;;;11.60;99.90;;;;;;5041668;28;20435;-67
2023/10/06 05:59:27;;;;;;;10.93;4.78;;;11.50;99.90;;;;;;5041718;28;20431;-67
2023/10/06 06:01:56;;;;;;;11.45;4.50;;;11.50;99.90;;;;;;5041372;28;20462;-67
2023/10/06 06:04:27;;;;;;;9.07;4.60;;;;;;;;;;5039589;28;20507;-67
2023/10/06 06:06:56;;;;;;;9.73;4.72;;;11.50;99.90;;;;;;5042793;28;20858;-67
2023/10/06 06:09:24;;;;;;;9.32;4.30;;;11.50;99.90;;;;;;5038642;28;20791;-67
2023/10/06 06:11:51;;;;;;;9.98;4.40;;;11.50;99.90;;;;;;5040496;28;20414;-67
2023/10/06 06:14:20;;;;;;;11.57;4.23;;;11.60;99.90;;;;;;5042010;28;20471;-67
2023/10/06 06:16:47;;;;;;;13.70;4.72;;;;;;;;;;5037719;28;20412;-67
2023/10/06 06:19:14;;;;;;;9.93;4.10;;;;;;;;;;5039882;28;20419;-67
2023/10/06 06:21:42;;;;;;;9.32;4.18;;;11.60;99.90;;;;;;5038920;28;20893;-67
2023/10/06 06:24:09;;;;;;;9.55;4.05;;;11.70;99.90;;;;;;5041135;28;20539;-67
2023/10/06 06:26:37;;;;;;;8.18;4.70;;;11.70;99.90;;;;;;5036118;28;20901;-67
2023/10/06 06:29:03;;;;;;;9.30;4.30;;;11.60;99.90;;;;;;5038707;28;20901;-67
2023/10/06 06:31:32;;;;;;;9.13;4.57;;;12.10;99.90;;;;;;5042567;28;20418;-67
2023/10/06 06:33:59;;;;;;;10.40;4.18;;;11.90;99.90;;;;;;5040030;28;20990;-67
2023/10/06 06:36:27;;;;;;;9.27;4.25;;;12.00;99.90;;;;;;5037700;28;20411;-67
2023/10/06 06:38:55;;;;;;;7.78;3.75;;;12.20;99.90;;;;;;5041754;28;20409;-67
2023/10/06 06:41:22;;;;;;;8.35;4.20;;;12.20;99.90;;;;;;5039933;28;20423;-67
2023/10/06 06:43:49;;;;;;;9.83;3.97;;;12.20;99.90;;;;;;5038383;28;20894;-68
2023/10/06 06:46:16;;;;;;;10.52;4.25;;;12.10;99.90;;;;;;5041229;28;20416;-67
2023/10/06 06:48:44;;;;;;;10.48;4.30;;;12.40;99.90;;;;;;5042454;28;20502;-68
2023/10/06 06:51:12;;;;;;;9.95;4.15;;;12.30;99.90;;;;;;5049194;28;20969;-68
2023/10/06 06:53:39;;;;;;;10.23;4.10;;;12.40;99.90;;;;;;5043991;28;20424;-68
2023/10/06 06:56:10;;;;;;;9.50;3.88;;;12.60;99.90;;;;;;5043110;28;20421;-68
2023/10/06 06:58:37;;;;;;;8.27;3.40;;;12.60;99.90;;;;;;5041538;28;20510;-68
2023/10/06 07:01:05;;;;;;;11.75;4.10;;;12.80;99.90;;;;;;5044295;28;20409;-68
2023/10/06 07:03:32;;;;;;;9.02;3.75;;;12.70;99.90;;;;;;5043951;28;20526;-68
2023/10/06 07:05:59;;;;;;;8.23;3.67;;;13.30;99.90;;;;;;5041810;28;20410;-68
2023/10/06 07:08:27;;;;;;;8.68;3.90;;;12.80;99.90;;;;;;5045350;28;20466;-69
2023/10/06 07:10:54;;;;;;;11.05;3.90;;;13.80;99.90;;;;;;5043441;28;20472;-68
2023/10/06 07:13:23;;;;;;;8.85;3.92;;;13.00;99.90;;;;;;5041838;28;20411;-68
2023/10/06 07:15:50;;;;;;;7.68;3.65;;;13.00;99.90;;;;;;5041846;28;20494;-68
2023/10/06 07:18:16;;;;;;;10.38;3.65;;;13.20;99.90;;;;;;5042410;28;20413;-68
2023/10/06 07:20:44;;;;;;;8.20;3.50;;;13.20;99.90;;;;;;5042479;28;20420;-68
2023/10/06 07:23:11;;;;;;;7.50;3.45;;;13.50;99.90;;;;;;5042193;28;20466;-68
2023/10/06 07:25:38;;;;;;;10.23;3.67;;;16.80;99.90;;;;;;5038648;28;20421;-68
2023/10/06 07:28:12;;;;;;;6.53;3.40;;;13.40;99.90;;;;;;5050247;28;20413;-69
2023/10/06 07:30:40;;;;;;;6.38;3.28;;;13.50;99.90;;;;;;5038289;28;20420;-68
2023/10/06 07:33:08;;;;;;;7.47;3.40;;;13.60;95.30;;;;;;5044799;28;20443;-68
2023/10/06 07:35:41;;;;;;;7.78;3.17;;;13.60;95.70;;;;;;5035849;28;21196;-68
2023/10/06 07:38:13;;;;;;;8.55;3.40;;;;;;;;;;5042821;28;20818;-69
2023/10/06 07:40:42;;;;;;;7.68;3.63;;;;;;;;;;5043411;28;20471;-67
2023/10/06 07:43:10;;;;;;;5.57;3.28;;;13.70;70.00;;;;;;5041501;28;20426;-69
2023/10/06 07:45:37;;;;;;;6.55;3.15;;;;;;;;;;5042802;28;20428;-67
2023/10/06 07:48:06;;;;;;;9.07;3.60;;;13.80;55.60;;;;;;5044164;28;20490;-68
2023/10/06 07:50:34;;;;;;;9.38;3.90;;;;;;;;;;5041228;28;20529;-68
2023/10/06 07:53:01;;;;;;;7.03;3.30;;;14.00;24.10;;;;;;5042241;28;20452;-67
2023/10/06 07:55:28;;;;;;;9.25;3.85;;;13.90;7.10;;;;;;5042546;28;20409;-66
2023/10/06 07:57:55;;;;;;;11.77;3.60;;;14.20;1.00;;;;;;5039208;28;20409;-68
2023/10/06 08:00:32;;;;;;;9.73;3.58;;;;;;;;;;5041671;28;20414;-67
2023/10/06 08:03:00;;;;;;;9.05;3.30;;;14.60;1.00;;;;;;5041420;28;20472;-70
2023/10/06 08:05:29;;;;;;;10.27;3.60;;;;;;;;;;5039824;28;20538;-70
2023/10/06 08:07:57;;;;;;;8.13;3.23;;;;;;;;;;5042429;28;20458;-68
2023/10/06 08:10:24;;;;;;;7.30;3.17;;;;;;;;;;5041076;28;20986;-68
2023/10/06 08:12:52;;;;;;;8.33;3.60;;;14.20;1.00;;;;;;5039955;28;20889;-68
2023/10/06 08:15:21;;;;;;;7.35;3.50;;;14.00;1.00;;;;;;5042061;28;20600;-67
2023/10/06 08:17:50;;;;;;;9.40;3.60;;;14.30;1.00;;;;;;5041155;28;20454;-66
2023/10/06 08:20:17;;;;;;;8.75;3.58;;;14.20;1.00;;;;;;5039548;28;20460;-67
2023/10/06 08:22:46;;;;;;;10.90;3.78;;;14.40;1.00;;;;;;5042336;28;20429;-66
2023/10/06 08:25:14;;;;;;;12.02;4.32;;;14.20;1.00;;;;;;5042217;28;20462;-66
2023/10/06 08:27:41;;;;;;;9.98;4.00;;;14.50;1.00;;;;;;5041524;28;20455;-65
2023/10/06 08:30:16;;;;;;;7.80;3.58;;;;;;;;;;5043091;28;20454;-71
2023/10/06 08:32:44;;;;;;;6.70;3.10;;;14.90;1.00;;;;;;5052739;28;20458;-67
2023/10/06 08:35:13;;;;;;;6.82;3.30;;;;;;;;;;5049181;28;20547;-68
2023/10/06 08:37:41;;;;;;;7.38;3.78;;;15.20;99.90;;;;;;5040164;28;20459;-69
2023/10/06 08:40:19;;;;;;;7.57;3.10;;;;;;;;;;5038884;28;20464;-69
2023/10/06 08:42:49;;;;;;;7.00;3.30;;;15.20;99.90;;;;;;5039746;28;20435;-67
2023/10/06 08:45:20;;;;;;;7.38;3.40;;;14.30;99.90;;;;;;5040267;28;20417;-67
2023/10/06 08:47:48;;;;;;;8.68;3.53;;;15.50;99.90;;;;;;5039967;28;20475;-67
2023/10/06 08:50:22;;;;;;;9.20;3.63;;;15.50;99.90;;;;;;5039479;28;20777;-67
2023/10/06 08:52:51;;;;;;;10.10;3.92;;;15.70;99.90;;;;;;5041387;28;20436;-67
2023/10/06 08:55:19;;;;;;;10.13;3.72;;;15.70;99.90;;;;;;5042628;28;20456;-67
2023/10/06 08:57:46;;;;;;;7.97;3.73;;;16.00;71.50;;;;;;5039454;28;20467;-67
2023/10/06 09:00:14;;;;;;;8.20;3.43;;;;;;;;;;5039301;28;20900;-67
2023/10/06 09:02:42;;;;;;;12.90;3.80;;;15.40;97.30;;;;;;5042043;28;20457;-67
2023/10/06 09:05:11;;;;;;;9.73;3.80;;;17.60;1.00;;;;;;5040724;28;20453;-66
2023/10/06 09:07:37;;;;;;;7.90;3.60;;;16.00;99.90;;;;;;5038855;28;20413;-67
2023/10/06 09:10:18;;;;;;;9.70;4.28;;;16.20;99.90;;;;;;5038786;28;20415;-67
2023/10/06 09:12:46;;;;;;;11.07;4.30;;;16.10;1.00;;;;;;5041725;28;20410;-68
2023/10/06 09:15:18;;;;;;;7.78;3.95;;;;;;;;;;5041970;28;20420;-72
2023/10/06 09:17:46;;;;;;;6.88;3.50;;;;;;;;;;5038157;28;20465;-72
2023/10/06 09:20:13;;;;;;;8.85;3.40;;;;;;;;;;5038787;28;20505;-69
2023/10/06 09:22:48;;;;;;;8.73;3.80;;;;;;;;;;5046964;28;20429;-69
2023/10/06 09:25:18;;;;;;;10.43;3.60;;;16.60;1.00;;;;;;5042702;28;20409;-68
2023/10/06 09:27:48;;;;;;;8.77;3.38;;;;;;;;;;5040204;28;20518;-71
2023/10/06 09:30:20;;;;;;;9.63;3.35;;;16.80;99.90;;;;;;5038637;28;20514;-66
2023/10/06 09:32:49;;;;;;;7.28;3.17;;;16.90;1.00;;;;;;5040699;28;20515;-66
2023/10/06 09:35:20;;;;;;;9.90;3.72;;;17.60;1.00;;;;;;5041468;28;20413;-66
2023/10/06 09:37:47;;;;;;;9.25;3.38;;;17.10;1.00;;;;;;5039156;28;20410;-66
2023/10/06 09:40:20;;;;;;;10.30;3.97;;;17.20;1.00;;;;;;5043731;28;20405;-66
2023/10/06 09:42:49;;;;;;;8.25;3.65;;;;;;;;;;5041672;28;20461;-70
2023/10/06 09:45:21;;;;;;;8.68;3.63;;;17.20;75.50;;;;;;5040090;28;20877;-70
2023/10/06 09:47:50;;;;;;;8.70;3.50;;;17.30;1.00;;;;;;5038993;28;20805;-66
2023/10/06 09:50:20;;;;;;;11.57;3.70;;;17.60;99.90;;;;;;5040178;28;20492;-67
2023/10/06 09:52:48;;;;;;;8.90;3.42;;;17.40;99.90;;;;;;5040263;28;20414;-67
2023/10/06 09:55:19;;;;;;;8.85;3.90;;;18.40;94.70;;;;;;5037074;28;20881;-67
2023/10/06 09:57:48;;;;;;;11.80;3.90;;;17.10;95.00;;;;;;5039153;28;20417;-67
2023/10/06 10:00:17;;;;;;;9.75;3.60;;;;;;;;;;5040952;28;20849;-68
2023/10/06 10:02:45;;;;;;;10.00;3.67;;;;;;;;;;5040422;28;20429;-71
2023/10/06 10:05:13;;;;;;;7.82;3.58;;;;;;;;;;5041142;28;20406;-71
2023/10/06 10:07:40;;;;;;;10.95;3.75;;;17.00;38.80;;;;;;5042039;28;20418;-70
2023/10/06 10:10:10;;;;;;;9.93;3.80;;;17.20;89.80;;;;;;5043912;28;20502;-66
2023/10/06 10:12:47;;;;;;;8.23;3.53;;;17.50;1.00;;;;;;5040405;28;20845;-65
2023/10/06 10:15:26;;;;;;;7.13;3.63;;;17.40;1.00;;;;;;5041636;28;20420;-67
2023/10/06 10:17:58;;;;;;;10.07;3.33;;;;;;;;;;5042205;28;20777;-70
2023/10/06 10:20:26;;;;;;;8.75;3.50;;;;;;;;;;5038239;28;20495;-66
2023/10/06 10:22:56;;;;;;;9.85;3.70;;;17.60;99.90;;;;;;5040907;28;20427;-66
2023/10/06 10:25:24;;;;;;;9.30;3.72;;;17.20;99.90;;;;;;5042490;28;20407;-69
2023/10/06 10:28:19;;;;;;;9.93;4.00;;;17.30;99.90;;;;;;5047525;28;20476;-67
2023/10/06 10:30:53;;;;;;;9.10;3.72;;;17.20;1.00;;;;;;4996049;28;20509;-69
2023/10/06 10:33:24;;;;;;;9.35;4.07;;;;;;;;;;5042413;28;20419;-71
2023/10/06 10:36:21;;;;;;;11.88;4.97;;;17.40;99.90;;;;;;5042338;28;20422;-70
2023/10/06 10:39:03;;;;;;;13.38;5.05;;;16.80;1.00;;;;;;5043932;28;20771;-68
2023/10/06 10:41:35;;;;;;;9.38;4.20;;;16.70;1.00;;;;;;5041503;28;20793;-70
2023/10/06 10:44:02;;;;;;;9.18;4.40;;;;;;;;;;5039772;28;20509;-67
2023/10/06 10:46:40;;;;;;;11.57;4.28;;;17.00;99.90;;;;;;5043651;28;20420;-69
2023/10/06 10:49:09;;;;;;;13.02;4.40;;;14.60;99.90;;;;;;5045430;28;20413;-69
2023/10/06 10:51:50;;;;;;;8.82;3.90;;;;;;;;;;5043666;28;20427;-69
2023/10/06 10:54:21;;;;;;;10.50;3.75;;;;;;;;;;5045827;28;20413;-70
2023/10/06 10:56:51;;;;;;;7.40;3.73;;;;;;;;;;5042771;28;20411;-69
2023/10/06 10:59:18;;;;;;;11.20;3.80;;;;;;;;;;5044241;28;20890;-68
2023/10/06 11:01:51;;;;;;;9.02;3.50;;;17.60;99.90;;;;;;5042645;28;20903;-70
2023/10/06 11:04:29;;;;;;;7.80;3.43;;;17.50;99.90;;;;;;5041352;28;20454;-69
2023/10/06 11:06:58;;;;;;;10.77;3.03;;;17.50;99.90;;;;;;5042399;28;20485;-69
2023/10/06 11:09:30;;;;;;;7.85;3.15;;;;;;;;;;5043577;28;20516;-69
2023/10/06 11:11:59;;;;;;;7.13;3.20;;;18.30;1.00;;;;;;5045389;28;20415;-69
2023/10/06 11:14:27;;;;;;;8.98;3.05;;;;;;;;;;5040642;28;20419;-70
2023/10/06 11:17:02;;;;;;;9.02;3.00;;;;;;;;;;5041203;28;20426;-70
2023/10/06 11:19:30;;;;;;;6.90;2.70;;;;;;;;;;5040818;28;20450;-69
2023/10/06 11:22:08;;;;;;;8.55;2.92;;;18.70;1.00;;;;;;5043555;28;20413;-70
2023/10/06 11:24:35;;;;;;;5.78;2.60;;;;;;;;;;5044002;28;20432;-70
2023/10/06 11:27:11;;;;;;;8.18;2.85;;;;;;;;;;5041988;28;20426;-69
2023/10/06 11:29:38;;;;;;;9.30;3.00;;;19.10;99.90;;;;;;5041074;28;20411;-68
2023/10/06 11:32:06;;;;;;;9.00;3.30;;;18.90;99.90;;;;;;5043792;28;20825;-68
2023/10/06 11:34:34;;;;;;;7.30;3.25;;;19.00;1.00;;;;;;5042732;28;20936;-69
2023/10/06 11:37:01;;;;;;;7.40;2.75;;;;;;;;;;5040188;28;20415;-69
2023/10/06 11:39:29;;;;;;;9.73;2.80;;;;;;;;;;5042956;28;20409;-69
2023/10/06 11:42:32;;;;;;;8.10;3.00;;;19.20;1.00;;;;;;5042444;28;20537;-68
2023/10/06 11:45:00;;;;;;;7.75;2.83;;;18.50;90.80;;;;;;5040854;28;20429;-68
2023/10/06 11:47:43;;;;;;;7.50;3.00;;;19.30;26.50;;;;;;5041946;28;20431;-68
2023/10/06 11:50:26;;;;;;;7.45;2.78;;;19.40;99.90;;;;;;5039837;28;20905;-68
2023/10/06 11:52:55;;;;;;;7.47;3.20;;;19.10;99.90;;;;;;5044770;28;20440;-69
2023/10/06 11:55:25;;;;;;;8.05;2.80;;;19.60;69.60;;;;;;5047676;28;20420;-68
2023/10/06 11:57:52;;;;;;;7.90;2.78;;;19.20;83.20;;;;;;5040971;28;20482;-68
2023/10/06 12:00:33;;;;;;;8.75;2.80;;;19.30;99.90;;;;;;5041450;28;20849;-68
2023/10/06 12:03:01;;;;;;;6.45;2.92;;;19.70;99.90;;;;;;5041624;28;20403;-69
2023/10/06 12:05:28;;;;;;;7.20;3.35;;;;;;;;;;5042342;28;20462;-67
2023/10/06 12:08:00;;;;;;;8.38;3.13;;;;;;;;;;5042924;28;20417;-66
2023/10/06 12:10:27;;;;;;;8.27;2.90;;;19.00;99.90;;;;;;5041413;28;20419;-67
2023/10/06 12:12:55;;;;;;;7.82;2.97;;;18.90;1.00;;;;;;5040418;28;20410;-67
2023/10/06 12:15:21;;;;;;;7.20;3.00;;;18.80;4.40;;;;;;5040491;28;20403;-67
2023/10/06 12:17:50;;;;;;;8.43;3.05;;;;;;;;;;5041978;28;20405;-67
2023/10/06 12:20:19;;;;;;;5.97;2.85;;;;;;;;;;5042614;28;20413;-67
2023/10/06 12:22:47;;;;;;;7.35;2.83;;;19.30;99.90;;;;;;5046176;28;20401;-67
2023/10/06 12:25:15;;;;;;;6.53;2.90;;;19.10;18.60;;;;;;5040181;28;20879;-67
2023/10/06 12:27:43;;;;;;;10.70;3.33;;;19.10;58.80;;;;;;5040192;28;20423;-67
2023/10/06 12:30:11;;;;;;;6.57;2.97;;;18.70;21.00;;;;;;5046759;28;20452;-68
2023/10/06 12:32:38;;;;;;;6.28;3.20;;;18.90;1.00;;;;;;5044856;28;20423;-68
2023/10/06 12:35:05;;;;;;;10.27;3.25;;;19.30;14.90;;;;;;5042198;28;20953;-68
2023/10/06 12:37:34;;;;;;;10.85;3.47;;;18.90;1.00;;;;;;5040875;28;20490;-67
2023/10/06 12:40:03;;;;;;;6.50;2.65;;;19.00;7.90;;;;;;5040704;28;20842;-69
2023/10/06 12:42:31;;;;;;;8.48;2.90;;;20.30;1.00;;;;;;5040161;28;20487;-67
2023/10/06 12:45:00;;;;;;;9.55;3.17;;;19.20;1.00;;;;;;5041552;28;20429;-68
2023/10/06 12:47:28;;;;;;;7.10;3.35;;;19.00;1.00;;;;;;5041364;28;20445;-68
2023/10/06 12:49:58;;;;;;;10.00;3.22;;;19.20;1.00;;;;;;5039654;28;20446;-69
2023/10/06 12:52:25;;;;;;;8.68;2.85;;;19.20;1.00;;;;;;5041986;28;20954;-69
2023/10/06 12:54:53;;;;;;;7.63;2.80;;;20.10;1.00;;;;;;5040844;28;20422;-68
2023/10/06 12:57:19;;;;;;;8.70;3.13;;;19.50;1.00;;;;;;5039588;28;20421;-68
2023/10/06 12:59:48;;;;;;;8.00;2.92;;;19.50;1.00;;;;;;5041000;28;20417;-68
2023/10/06 13:02:24;;;;;;;5.10;2.80;;;19.50;1.00;;;;;;5042465;28;20425;-68
2023/10/06 13:04:51;;;;;;;9.65;3.40;;;19.50;1.00;;;;;;5040934;28;20426;-68
2023/10/06 13:07:18;;;;;;;10.40;3.13;;;19.30;1.00;;;;;;5039462;28;20415;-69
2023/10/06 13:09:49;;;;;;;6.73;3.17;;;19.20;1.00;;;;;;5039473;28;20910;-68
2023/10/06 13:12:17;;;;;;;7.25;3.47;;;;;;;;;;5040398;28;20416;-68
2023/10/06 13:14:44;;;;;;;8.98;3.40;;;18.60;1.00;;;;;;5042345;28;21099;-69
2023/10/06 13:17:11;;;;;;;6.63;3.08;;;18.70;38.20;;;;;;5041317;28;20413;-68
2023/10/06 13:19:37;;;;;;;9.65;3.28;;;18.80;1.00;;;;;;5040698;28;20411;-68
2023/10/06 13:22:05;;;;;;;8.50;2.90;;;18.90;99.90;;;;;;5038812;28;21184;-68
2023/10/06 13:24:34;;;;;;;7.72;3.00;;;19.30;67.80;;;;;;5043145;28;20486;-68